Time;durP1;ratioP1;P1;durP2;ratioP2;P2;SDS_P1;SDS_P2;PMS_P1;PMS_P2;Temp;Humidity;BMP_temperature;BMP_pressure;BME280_temperature;BME280_humidity;BME280_pressure;Samples;Min_cycle;Max_cycle;Signal;HPM_P1;HPM_P2
2021/10/19 00:01:05;;;;;;;12.58;6.53;;;;;;;7.58;63.91;101068.19;1840997;76;21033;-56
2021/10/19 00:03:33;;;;;;;14.65;6.50;;;;;;;7.56;63.90;101070.03;1839115;76;21031;-57
2021/10/19 00:05:59;;;;;;;12.40;7.25;;;;;;;7.56;63.98;101070.03;1841785;76;20963;-58
2021/10/19 00:08:26;;;;;;;13.35;7.05;;;;;;;7.55;63.96;101072.28;1832158;76;21128;-57
2021/10/19 00:10:52;;;;;;;15.18;7.70;;;;;;;7.55;63.93;101072.28;1839427;76;21484;-57
2021/10/19 00:13:20;;;;;;;11.73;6.83;;;;;;;7.53;63.96;101074.16;1837231;77;21461;-57
2021/10/19 00:15:47;;;;;;;15.55;6.78;;;;;;;7.49;63.95;101071.78;1838287;76;21030;-57
2021/10/19 00:18:13;;;;;;;13.08;7.65;;;;;;;7.43;63.97;101075.58;1824112;76;21495;-58
2021/10/19 00:20:40;;;;;;;11.70;6.35;;;;;;;7.37;64.10;101080.70;1817378;77;21045;-58
2021/10/19 00:23:07;;;;;;;11.63;6.53;;;;;;;7.37;64.19;101080.70;1833599;77;21011;-58
2021/10/19 00:25:33;;;;;;;10.03;6.03;;;;;;;7.41;64.13;101082.23;1842035;76;21065;-58
2021/10/19 00:28:00;;;;;;;11.88;6.28;;;;;;;7.43;64.19;101084.73;1811921;77;21054;-59
2021/10/19 00:30:26;;;;;;;13.00;7.50;;;;;;;7.45;64.18;101086.83;1804696;77;21057;-55
2021/10/19 00:32:53;;;;;;;10.50;6.25;;;;;;;7.42;64.26;101085.21;1803296;77;21093;-57
2021/10/19 00:35:20;;;;;;;12.95;6.65;;;;;;;7.37;64.41;101087.72;1789853;78;21059;-58
2021/10/19 00:37:46;;;;;;;12.55;7.08;;;;;;;7.32;64.43;101089.27;1813766;77;21528;-57
2021/10/19 00:40:13;;;;;;;13.30;7.80;;;;;;;7.27;64.48;101090.47;1820740;77;21103;-57
2021/10/19 00:42:39;;;;;;;15.18;7.15;;;;;;;7.18;64.65;101085.28;1817040;77;21038;-57
2021/10/19 00:45:07;;;;;;;10.30;6.53;;;;;;;7.08;64.77;101090.16;1815991;77;21498;-57
2021/10/19 00:47:34;;;;;;;12.63;7.15;;;;;;;6.99;64.96;101086.27;1812383;77;21089;-57
2021/10/19 00:50:01;;;;;;;14.78;7.20;;;;;;;6.94;65.26;101088.73;1812086;77;21063;-57
2021/10/19 00:52:28;;;;;;;11.68;6.60;;;;;;;6.90;65.40;101092.45;1811582;77;21798;-57
2021/10/19 00:54:54;;;;;;;12.53;6.62;;;;;;;6.95;65.47;101095.67;1807470;77;20991;-58
2021/10/19 00:57:21;;;;;;;11.18;7.08;;;;;;;6.98;65.55;101091.59;1816586;77;21129;-58
2021/10/19 00:59:47;;;;;;;12.80;6.97;;;;;;;6.96;65.71;101093.41;1813236;77;21757;-58
2021/10/19 01:02:14;;;;;;;14.20;7.45;;;;;;;6.91;65.91;101094.13;1775868;77;21157;-58
2021/10/19 01:04:42;;;;;;;13.13;7.00;;;;;;;6.84;66.02;101100.14;1791071;78;21124;-58
2021/10/19 01:07:09;;;;;;;12.70;6.83;;;;;;;6.77;66.17;101098.31;1786456;78;21606;-58
2021/10/19 01:09:37;;;;;;;13.08;7.47;;;;;;;6.72;66.30;101096.88;1810171;77;21139;-58
2021/10/19 01:12:07;;;;;;;10.13;6.47;;;;;;;6.66;66.41;101100.67;1812980;77;22129;-58
2021/10/19 01:14:35;;;;;;;14.73;7.25;;;;;;;6.60;66.55;101103.59;1779938;78;21767;-56
2021/10/19 01:17:04;;;;;;;13.80;7.62;;;;;;;6.56;66.76;101108.61;1814296;77;21046;-57
2021/10/19 01:19:31;;;;;;;10.60;6.22;;;;;;;6.54;66.83;101107.83;1810897;77;21057;-57
2021/10/19 01:22:00;;;;;;;14.00;7.92;;;;;;;6.58;66.75;101106.76;1811649;77;21142;-57
2021/10/19 01:24:26;;;;;;;10.82;6.67;;;;;;;6.59;66.88;101113.66;1808467;77;21527;-58
2021/10/19 01:26:55;;;;;;;12.53;6.47;;;;;;;6.58;67.00;101110.68;1814587;78;21134;-59
2021/10/19 01:29:21;;;;;;;13.10;7.12;;;;;;;6.51;67.25;101108.37;1823689;77;21038;-58
2021/10/19 01:31:50;;;;;;;12.60;7.28;;;;;;;6.44;67.34;101112.23;1829426;77;21073;-58
2021/10/19 01:34:17;;;;;;;13.32;8.05;;;;;;;6.38;67.54;101115.63;1823288;76;21966;-58
2021/10/19 01:36:45;;;;;;;12.78;7.10;;;;;;;6.33;67.66;101121.91;1830116;77;21038;-58
2021/10/19 01:39:11;;;;;;;11.80;6.85;;;;;;;6.27;67.83;101116.14;1806288;77;21064;-58
2021/10/19 01:44:20;;;;;;;13.35;6.75;;;;;;;6.22;68.01;101120.76;1783333;78;23257;-57
2021/10/19 01:46:46;;;;;;;11.40;6.65;;;;;;;6.17;68.14;101126.67;1748499;80;21034;-58
2021/10/19 01:49:12;;;;;;;10.78;6.75;;;;;;;6.20;68.04;101130.45;1747745;80;21118;-58
2021/10/19 01:51:41;;;;;;;12.50;7.17;;;;;;;6.17;68.17;101126.67;1751164;80;21038;-58
2021/10/19 01:54:07;;;;;;;13.90;7.15;;;;;;;6.11;68.25;101132.59;1749522;80;21475;-57
2021/10/19 01:56:33;;;;;;;18.60;7.33;;;;;;;6.06;68.31;101125.44;1747998;81;21512;-58
2021/10/19 01:59:00;;;;;;;11.48;7.25;;;;;;;6.02;68.32;101130.89;1751430;80;21058;-58
2021/10/19 02:01:26;;;;;;;12.10;6.55;;;;;;;5.97;68.38;101128.52;1745367;80;22322;-58
2021/10/19 02:03:53;;;;;;;12.58;6.40;;;;;;;5.93;68.48;101133.46;1747971;80;21002;-58
2021/10/19 02:06:19;;;;;;;11.10;6.22;;;;;;;5.86;68.63;101137.30;1749787;80;21559;-58
2021/10/19 02:08:46;;;;;;;10.65;6.33;;;;;;;5.86;68.65;101133.38;1747806;80;21059;-58
2021/10/19 02:11:12;;;;;;;10.93;6.47;;;;;;;5.96;68.52;101132.05;1749963;80;21795;-58
2021/10/19 02:13:38;;;;;;;11.45;6.90;;;;;;;6.04;68.27;101125.98;1751200;80;21148;-58
2021/10/19 02:16:05;;;;;;;12.53;6.22;;;;;;;6.05;68.17;101133.36;1749148;80;21082;-58
2021/10/19 02:18:32;;;;;;;12.45;6.80;;;;;;;6.02;68.39;101134.80;1749533;80;21057;-58
2021/10/19 02:20:58;;;;;;;12.95;6.35;;;;;;;5.99;68.36;101138.44;1750053;80;21611;-58
2021/10/19 02:23:25;;;;;;;11.48;6.25;;;;;;;5.94;68.30;101150.38;1750355;80;21034;-58
2021/10/19 02:25:51;;;;;;;11.80;6.90;;;;;;;5.88;68.44;101151.96;1722209;81;21135;-57
2021/10/19 02:28:18;;;;;;;12.03;6.58;;;;;;;5.81;68.44;101152.34;1749071;80;21019;-56
2021/10/19 02:30:44;;;;;;;10.58;6.28;;;;;;;5.74;68.48;101160.94;1748083;80;21031;-57
2021/10/19 02:33:10;;;;;;;10.40;6.17;;;;;;;5.75;68.53;101166.55;1721775;80;21629;-57
2021/10/19 02:35:37;;;;;;;10.25;5.28;;;;;;;5.84;68.43;101172.63;1729404;81;21471;-57
2021/10/19 02:38:04;;;;;;;12.30;6.17;;;;;;;5.92;68.25;101168.36;1750666;80;21121;-57
2021/10/19 02:40:31;;;;;;;9.45;5.45;;;;;;;5.98;68.20;101172.47;1751126;80;21596;-57
2021/10/19 02:42:57;;;;;;;10.25;6.30;;;;;;;6.01;68.04;101167.94;1724416;80;21110;-57
2021/10/19 02:45:24;;;;;;;12.47;6.45;;;;;;;6.00;68.01;101175.41;1746668;81;21605;-57
2021/10/19 02:47:51;;;;;;;12.80;5.85;;;;;;;5.97;67.85;101175.98;1745116;80;21423;-57
2021/10/19 02:50:17;;;;;;;9.65;5.80;;;;;;;5.91;67.79;101180.55;1740306;81;21415;-57
2021/10/19 02:52:44;;;;;;;12.33;6.47;;;;;;;5.83;67.70;101182.68;1743715;81;21064;-57
2021/10/19 02:55:12;;;;;;;9.08;5.17;;;;;;;5.74;67.77;101187.05;1744547;80;21105;-57
2021/10/19 02:57:39;;;;;;;9.43;5.58;;;;;;;5.64;67.91;101194.92;1739170;81;21051;-57
2021/10/19 03:00:09;;;;;;;8.18;5.20;;;;;;;5.53;68.05;101191.48;1724880;81;21110;-57
2021/10/19 03:02:35;;;;;;;9.53;5.37;;;;;;;5.47;68.14;101191.32;1742020;80;22223;-57
2021/10/19 03:05:04;;;;;;;9.73;5.62;;;;;;;5.48;68.07;101186.50;1742431;80;21070;-57
2021/10/19 03:07:31;;;;;;;10.40;5.40;;;;;;;5.48;68.14;101186.50;1744072;80;21047;-58
2021/10/19 03:09:57;;;;;;;10.82;5.50;;;;;;;5.48;68.12;101192.16;1741754;80;21023;-57
2021/10/19 03:12:23;;;;;;;9.60;5.62;;;;;;;5.38;68.30;101195.20;1744498;82;21090;-57
2021/10/19 03:14:51;;;;;;;10.75;5.53;;;;;;;5.29;68.45;101189.08;1743860;80;21155;-57
2021/10/19 03:17:18;;;;;;;9.95;5.65;;;;;;;5.19;68.58;101186.06;1752819;81;21052;-57
2021/10/19 03:19:44;;;;;;;8.90;5.12;;;;;;;5.14;68.70;101192.38;1733586;80;21072;-58
2021/10/19 03:22:11;;;;;;;12.53;5.67;;;;;;;5.05;68.83;101194.94;1744935;80;21094;-58
2021/10/19 03:24:37;;;;;;;14.10;5.62;;;;;;;4.98;68.86;101198.28;1745090;80;21054;-58
2021/10/19 03:27:04;;;;;;;10.68;5.22;;;;;;;4.93;68.94;101198.94;1744424;82;23327;-57
2021/10/19 03:29:30;;;;;;;10.43;5.47;;;;;;;4.95;68.85;101197.09;1745271;80;21023;-57
2021/10/19 03:31:57;;;;;;;9.88;5.20;;;;;;;4.97;68.93;101197.03;1722209;82;22291;-56
2021/10/19 03:34:23;;;;;;;9.98;5.45;;;;;;;4.92;68.95;101193.31;1743812;80;21098;-57
2021/10/19 03:36:50;;;;;;;17.52;8.43;;;;;;;4.87;69.13;101196.58;1744720;81;21520;-57
2021/10/19 03:39:16;;;;;;;14.93;9.55;;;;;;;4.79;69.24;101203.45;1752174;80;21205;-56
2021/10/19 03:41:43;;;;;;;14.70;9.58;;;;;;;4.72;69.38;101203.76;1720398;82;21074;-57
2021/10/19 03:44:10;;;;;;;11.80;8.03;;;;;;;4.63;69.45;101211.05;1723940;81;21095;-57
2021/10/19 03:46:37;;;;;;;12.25;6.90;;;;;;;4.59;69.59;101208.63;1742956;82;21113;-57
2021/10/19 03:49:03;;;;;;;12.07;6.33;;;;;;;4.57;69.63;101210.46;1720180;82;21086;-57
2021/10/19 03:51:30;;;;;;;10.55;6.65;;;;;;;4.60;69.69;101214.25;1720803;82;21420;-57
2021/10/19 03:53:56;;;;;;;11.95;5.87;;;;;;;4.63;69.62;101214.96;1741036;80;21633;-57
2021/10/19 03:56:22;;;;;;;15.15;7.87;;;;;;;4.65;69.60;101210.53;1725845;80;20974;-57
2021/10/19 03:58:49;;;;;;;13.95;7.92;;;;;;;4.64;69.61;101214.06;1738164;80;21062;-57
2021/10/19 04:01:15;;;;;;;10.45;6.50;;;;;;;4.63;69.66;101219.34;1721419;82;21050;-57
2021/10/19 04:03:42;;;;;;;10.45;5.33;;;;;;;4.63;69.82;101224.09;1745843;80;21520;-58
2021/10/19 04:06:11;;;;;;;9.48;5.92;;;;;;;4.72;69.92;101229.83;1746582;80;21044;-58
2021/10/19 04:08:38;;;;;;;13.22;5.33;;;;;;;4.77;69.73;101234.39;1746668;80;21077;-58
2021/10/19 04:11:04;;;;;;;10.25;4.65;;;;;;;4.82;69.45;101236.34;1748820;80;21525;-58
2021/10/19 04:13:31;;;;;;;12.78;5.83;;;;;;;4.93;69.14;101241.97;1751736;80;21059;-58
2021/10/19 04:15:57;;;;;;;10.55;5.33;;;;;;;5.01;68.93;101237.74;1755376;80;21103;-58
2021/10/19 04:18:25;;;;;;;9.93;5.00;;;;;;;5.02;68.78;101242.86;1744611;80;21047;-58
2021/10/19 04:20:52;;;;;;;10.65;5.35;;;;;;;5.03;68.63;101249.78;1743055;80;21768;-57
2021/10/19 04:23:18;;;;;;;11.83;5.83;;;;;;;5.02;68.47;101248.55;1755365;80;21067;-58
2021/10/19 04:25:46;;;;;;;8.40;5.33;;;;;;;4.94;68.29;101251.50;1746708;80;21039;-58
2021/10/19 04:28:12;;;;;;;10.68;6.30;;;;;;;4.86;68.37;101251.41;1746994;81;21507;-58
2021/10/19 04:30:39;;;;;;;8.55;5.28;;;;;;;4.79;68.47;101252.12;1741586;80;21026;-58
2021/10/19 04:33:05;;;;;;;9.55;4.70;;;;;;;4.83;68.40;101255.84;1737017;81;21071;-58
2021/10/19 04:35:32;;;;;;;9.15;5.37;;;;;;;4.87;68.34;101260.94;1739450;80;21103;-58
2021/10/19 04:37:58;;;;;;;8.83;4.58;;;;;;;4.87;68.50;101256.56;1746878;81;21083;-58
2021/10/19 04:40:25;;;;;;;11.25;5.33;;;;;;;4.87;68.52;101264.84;1744173;80;21133;-58
2021/10/19 04:42:52;;;;;;;8.73;4.90;;;;;;;4.83;68.58;101265.44;1743148;80;21019;-57
2021/10/19 04:45:20;;;;;;;10.75;5.87;;;;;;;4.84;68.64;101270.59;1729366;81;21117;-58
2021/10/19 04:47:47;;;;;;;10.85;5.58;;;;;;;4.82;68.52;101271.13;1745584;81;21062;-56
2021/10/19 04:50:14;;;;;;;12.03;5.10;;;;;;;4.83;68.47;101271.96;1749958;80;21559;-57
2021/10/19 04:52:41;;;;;;;11.70;5.42;;;;;;;4.88;68.36;101275.69;1751951;81;21177;-58
2021/10/19 04:55:09;;;;;;;10.05;5.42;;;;;;;4.94;68.10;101281.92;1746435;80;21794;-59
2021/10/19 04:57:35;;;;;;;12.55;5.87;;;;;;;4.95;68.03;101279.26;1750630;81;21102;-59
2021/10/19 05:00:04;;;;;;;10.93;5.65;;;;;;;4.92;67.87;101280.69;1747352;80;21046;-57
2021/10/19 05:02:30;;;;;;;9.88;5.28;;;;;;;4.83;67.96;101278.02;1750340;81;21031;-59
2021/10/19 05:04:56;;;;;;;10.60;5.62;;;;;;;4.80;68.12;101289.87;1728397;81;21534;-58
2021/10/19 05:07:23;;;;;;;12.50;5.50;;;;;;;4.77;68.10;101291.30;1725390;81;21086;-58
2021/10/19 05:09:50;;;;;;;10.72;5.70;;;;;;;4.74;68.24;101292.75;1749410;80;21547;-58
2021/10/19 05:12:18;;;;;;;10.23;5.53;;;;;;;4.72;68.27;101302.83;1732419;81;21075;-58
2021/10/19 05:14:45;;;;;;;9.85;5.28;;;;;;;4.70;68.40;101305.97;1748589;80;21121;-58
2021/10/19 05:17:11;;;;;;;11.08;5.10;;;;;;;4.74;68.38;101308.83;1728232;81;21047;-57
2021/10/19 05:19:39;;;;;;;10.85;5.35;;;;;;;4.82;68.14;101310.23;1747604;80;21054;-57
2021/10/19 05:22:05;;;;;;;11.70;5.33;;;;;;;4.88;67.89;101315.64;1744713;80;21058;-57
2021/10/19 05:24:31;;;;;;;10.90;5.47;;;;;;;4.90;67.90;101318.19;1726274;81;21055;-57
2021/10/19 05:26:58;;;;;;;10.20;5.53;;;;;;;4.91;68.02;101314.65;1748881;81;21754;-57
2021/10/19 05:29:24;;;;;;;9.70;5.28;;;;;;;4.92;68.04;101319.80;1721670;81;21269;-58
2021/10/19 05:31:51;;;;;;;11.53;6.05;;;;;;;4.91;67.78;101320.73;1752467;81;21003;-58
2021/10/19 05:34:18;;;;;;;12.20;5.28;;;;;;;4.86;67.90;101323.12;1746497;80;21042;-58
2021/10/19 05:36:44;;;;;;;13.28;5.47;;;;;;;4.79;68.02;101325.13;1733392;81;21054;-57
2021/10/19 05:39:10;;;;;;;11.03;5.42;;;;;;;4.73;68.18;101331.45;1751231;80;21074;-57
2021/10/19 05:41:37;;;;;;;14.15;5.55;;;;;;;4.73;68.30;101331.45;1746127;80;21149;-58
2021/10/19 05:44:04;;;;;;;8.38;5.08;;;;;;;4.79;68.24;101336.86;1740048;80;21093;-59
2021/10/19 05:46:30;;;;;;;11.53;5.17;;;;;;;4.84;68.16;101339.70;1736043;81;21015;-58
2021/10/19 05:48:57;;;;;;;8.80;5.03;;;;;;;4.87;68.03;101333.95;1739716;80;21193;-58
2021/10/19 05:51:23;;;;;;;12.50;5.70;;;;;;;4.86;68.19;101343.55;1735396;82;21087;-58
2021/10/19 05:53:50;;;;;;;13.30;5.80;;;;;;;4.82;68.10;101336.31;1722408;80;21075;-57
2021/10/19 05:56:16;;;;;;;14.83;5.33;;;;;;;4.78;68.20;101337.80;1726083;81;21058;-57
2021/10/19 05:58:43;;;;;;;13.20;5.50;;;;;;;4.76;68.24;101335.72;1728325;81;20981;-57
2021/10/19 06:01:09;;;;;;;11.53;4.80;;;;;;;4.79;68.31;101331.22;1735234;80;21015;-57
2021/10/19 06:03:37;;;;;;;11.05;5.15;;;;;;;4.93;67.95;101339.77;1744249;80;21023;-59
2021/10/19 06:06:08;;;;;;;14.87;5.37;;;;;;;5.03;67.49;101342.86;1729406;80;21739;-58
2021/10/19 06:08:35;;;;;;;10.82;5.85;;;;;;;5.07;67.63;101343.57;1738840;82;21025;-58
2021/10/19 06:11:01;;;;;;;12.13;5.70;;;;;;;5.14;67.42;101345.84;1735606;80;21036;-58
2021/10/19 06:13:31;;;;;;;14.00;5.58;;;;;;;5.16;67.32;101344.47;1728065;81;21102;-55
2021/10/19 06:15:58;;;;;;;9.93;4.75;;;;;;;5.19;67.05;101344.35;1736139;80;21012;-57
2021/10/19 06:18:25;;;;;;;10.32;5.12;;;;;;;5.20;66.90;101346.06;1737719;80;21103;-57
2021/10/19 06:20:52;;;;;;;8.95;4.45;;;;;;;5.25;66.76;101353.70;1718898;81;21071;-58
2021/10/19 06:23:19;;;;;;;11.38;4.20;;;;;;;5.32;66.58;101348.61;1718477;82;21013;-58
2021/10/19 06:25:47;;;;;;;7.83;3.50;;;;;;;5.49;66.38;101346.11;1717111;82;21710;-58
2021/10/19 06:28:13;;;;;;;12.63;5.30;;;;;;;5.63;66.08;101357.28;1735318;81;21595;-55
2021/10/19 06:30:40;;;;;;;8.43;4.28;;;;;;;5.67;65.96;101357.52;1735318;80;21120;-57
2021/10/19 06:33:06;;;;;;;8.30;4.08;;;;;;;5.70;65.71;101350.86;1715520;81;20976;-57
2021/10/19 06:35:33;;;;;;;8.88;4.42;;;;;;;5.69;65.59;101349.16;1733006;80;21610;-56
2021/10/19 06:37:59;;;;;;;8.23;4.30;;;;;;;5.70;65.39;101351.30;1734487;80;21035;-57
2021/10/19 06:40:25;;;;;;;10.50;4.40;;;;;;;5.72;65.40;101345.11;1732865;80;21533;-58
2021/10/19 06:42:52;;;;;;;11.05;5.17;;;;;;;5.75;64.94;101346.75;1723366;82;21059;-57
2021/10/19 06:45:18;;;;;;;9.35;4.85;;;;;;;5.83;64.98;101347.70;1737070;80;21043;-57
2021/10/19 06:47:45;;;;;;;9.30;4.15;;;;;;;5.99;64.85;101350.05;1730326;80;21429;-57
2021/10/19 06:50:12;;;;;;;6.67;3.80;;;;;;;6.11;64.08;101350.78;1728230;80;21015;-57
2021/10/19 06:52:39;;;;;;;8.10;4.40;;;;;;;6.16;63.81;101353.19;1733195;81;21533;-57
2021/10/19 06:55:07;;;;;;;7.83;4.40;;;;;;;6.18;63.93;101353.13;1736570;80;21255;-57
2021/10/19 06:57:43;;;;;;;7.28;3.75;;;;;;;6.24;63.69;101350.23;1735406;82;21047;-58
2021/10/19 07:00:12;;;;;;;9.85;4.50;;;;;;;6.28;63.02;101359.15;1730413;80;21058;-57
2021/10/19 07:02:40;;;;;;;7.72;3.85;;;;;;;6.30;63.04;101354.72;1720823;82;21055;-57
2021/10/19 07:05:07;;;;;;;8.50;4.47;;;;;;;6.33;62.82;101362.86;1730002;80;21081;-57
2021/10/19 07:07:33;;;;;;;12.45;4.35;;;;;;;6.36;62.59;101361.42;1731458;80;21539;-57
2021/10/19 07:10:01;;;;;;;7.58;4.05;;;;;;;6.42;62.22;101366.38;1724970;81;22006;-57
2021/10/19 07:12:28;;;;;;;8.18;3.87;;;;;;;6.58;61.75;101367.78;1719950;81;21097;-57
2021/10/19 07:14:54;;;;;;;6.78;3.30;;;;;;;6.69;61.39;101366.82;1720950;81;21087;-54
2021/10/19 07:17:22;;;;;;;8.13;4.20;;;;;;;6.80;61.53;101362.37;1732617;80;21740;-56
2021/10/19 07:19:48;;;;;;;8.10;4.30;;;;;;;6.93;61.27;101371.78;1720071;81;21063;-58
2021/10/19 07:22:15;;;;;;;6.85;3.35;;;;;;;7.07;60.88;101365.86;1738037;80;21008;-57
2021/10/19 07:24:41;;;;;;;7.80;3.72;;;;;;;7.16;60.34;101369.78;1726084;80;21087;-57
2021/10/19 07:27:08;;;;;;;8.85;4.58;;;;;;;7.18;59.88;101366.66;1734990;82;20996;-56
2021/10/19 07:29:35;;;;;;;9.33;4.35;;;;;;;7.21;59.51;101372.58;1735379;80;21118;-56
2021/10/19 07:32:01;;;;;;;9.60;4.20;;;;;;;7.21;59.58;101370.41;1738887;81;21561;-55
2021/10/19 07:34:29;;;;;;;10.10;4.40;;;;;;;7.26;59.47;101380.17;1737701;80;21113;-57
2021/10/19 07:36:56;;;;;;;10.45;4.45;;;;;;;7.26;59.09;101374.94;1715273;81;21036;-56
2021/10/19 07:39:22;;;;;;;8.30;3.87;;;;;;;7.29;59.18;101372.65;1731809;80;21189;-56
2021/10/19 07:41:49;;;;;;;8.00;3.98;;;;;;;7.35;58.97;101371.04;1730638;81;21053;-56
2021/10/19 07:44:16;;;;;;;7.42;3.35;;;;;;;7.40;58.74;101375.11;1739225;80;21836;-57
2021/10/19 07:46:42;;;;;;;8.05;4.37;;;;;;;7.45;58.66;101368.33;1748803;80;21074;-56
2021/10/19 07:49:09;;;;;;;11.38;4.25;;;;;;;7.53;58.79;101375.78;1751376;80;21512;-56
2021/10/19 07:51:35;;;;;;;8.23;3.62;;;;;;;7.62;58.09;101370.92;1726085;80;21398;-57
2021/10/19 07:54:01;;;;;;;8.08;3.55;;;;;;;7.72;57.60;101374.38;1748559;80;21086;-57
2021/10/19 07:56:28;;;;;;;7.85;3.72;;;;;;;7.77;57.50;101374.98;1744709;80;22000;-57
2021/10/19 07:58:55;;;;;;;12.18;4.28;;;;;;;7.88;57.43;101374.41;1730639;81;21038;-56
2021/10/19 08:01:22;;;;;;;7.45;3.50;;;;;;;7.97;57.31;101374.77;1733154;81;21629;-56
2021/10/19 08:03:48;;;;;;;8.20;2.50;;;;;;;8.09;56.18;101369.81;1751330;81;21016;-56
2021/10/19 08:06:14;;;;;;;7.85;3.00;;;;;;;8.16;55.69;101375.09;1747331;80;21046;-57
2021/10/19 08:08:41;;;;;;;6.00;2.27;;;;;;;8.23;54.32;101376.92;1727150;80;21022;-56
2021/10/19 08:11:07;;;;;;;7.33;2.67;;;;;;;8.30;53.41;101370.41;1747434;80;21011;-56
2021/10/19 08:13:35;;;;;;;7.60;2.70;;;;;;;8.36;53.83;101380.09;1746202;80;21062;-57
2021/10/19 08:16:02;;;;;;;7.22;2.80;;;;;;;8.46;53.50;101378.33;1748066;80;21090;-56
2021/10/19 08:18:29;;;;;;;7.40;1.80;;;;;;;8.55;53.32;101373.86;1744152;80;21098;-57
2021/10/19 08:20:57;;;;;;;5.87;2.17;;;;;;;8.64;53.38;101377.30;1731394;81;21528;-56
2021/10/19 08:23:24;;;;;;;6.80;2.67;;;;;;;8.74;52.90;101379.78;1744147;80;21102;-57
2021/10/19 08:25:51;;;;;;;8.63;2.90;;;;;;;8.86;52.25;101381.31;1726584;80;21093;-58
2021/10/19 08:28:24;;;;;;;9.48;2.90;;;;;;;8.96;51.75;101386.89;1731220;81;21481;-58
2021/10/19 08:30:52;;;;;;;6.40;2.60;;;;;;;9.01;51.56;101377.84;1748005;80;21438;-58
2021/10/19 08:33:19;;;;;;;5.78;2.17;;;;;;;9.10;51.65;101384.33;1746316;80;21125;-58
2021/10/19 08:35:45;;;;;;;5.25;2.10;;;;;;;9.19;50.82;101382.47;1727035;81;21135;-58
2021/10/19 08:38:13;;;;;;;6.20;2.30;;;;;;;9.28;50.63;101391.14;1749960;80;21547;-58
2021/10/19 08:40:43;;;;;;;10.65;2.65;;;;;;;9.35;49.79;101389.00;1724301;81;21656;-57
2021/10/19 08:43:11;;;;;;;4.87;1.85;;;;;;;9.41;50.06;101396.50;1748308;81;21050;-57
2021/10/19 08:45:37;;;;;;;4.80;1.98;;;;;;;9.47;48.44;101402.72;1747281;80;21156;-57
2021/10/19 08:48:07;;;;;;;5.60;2.27;;;;;;;9.51;48.89;101400.75;1749955;81;21034;-58
2021/10/19 08:50:32;;;;;;;7.20;2.00;;;;;;;9.55;47.53;101408.84;1746703;80;21097;-58
2021/10/19 08:52:58;;;;;;;4.22;1.60;;;;;;;9.57;47.24;101401.70;1741511;80;21784;-58
2021/10/19 08:55:25;;;;;;;5.35;1.75;;;;;;;9.64;48.05;101405.65;1744227;80;21090;-57
2021/10/19 08:57:51;;;;;;;4.65;1.47;;;;;;;9.74;48.41;101394.59;1750875;80;21484;-58
2021/10/19 09:00:18;;;;;;;3.85;1.40;;;;;;;9.85;46.96;101403.97;1747017;80;21034;-57
2021/10/19 09:02:48;;;;;;;4.75;1.62;;;;;;;9.97;45.55;101401.93;1748543;80;21524;-56
2021/10/19 09:05:18;;;;;;;6.47;1.32;;;;;;;10.03;45.98;101404.16;1723683;80;21623;-58
2021/10/19 09:08:09;;;;;;;3.27;0.90;;;;;;;10.10;44.82;101402.00;1720773;82;21075;-57
2021/10/19 09:10:43;;;;;;;4.25;1.65;;;;;;;10.16;44.72;101401.63;1746418;80;21084;-57
2021/10/19 09:13:12;;;;;;;2.67;0.60;;;;;;;10.21;44.92;101400.88;1748141;80;20968;-58
2021/10/19 09:15:42;;;;;;;5.30;1.05;;;;;;;10.31;43.65;101399.00;1750145;80;21587;-57
2021/10/19 09:18:12;;;;;;;5.35;2.02;;;;;;;10.33;43.71;101399.30;1748199;80;20994;-57
2021/10/19 09:20:48;;;;;;;4.12;1.35;;;;;;;10.33;43.09;101399.30;1748047;80;21105;-57
2021/10/19 09:23:15;;;;;;;4.45;1.40;;;;;;;10.31;43.51;101397.20;1730088;81;21034;-57
2021/10/19 09:25:47;;;;;;;4.22;1.55;;;;;;;10.28;42.97;101391.30;1744370;80;21039;-57
2021/10/19 09:28:15;;;;;;;3.45;0.93;;;;;;;10.27;43.55;101391.78;1748417;80;21434;-57
2021/10/19 09:30:50;;;;;;;4.10;0.72;;;;;;;10.27;43.43;101397.48;1743809;80;21471;-58
2021/10/19 09:33:18;;;;;;;3.37;0.85;;;;;;;10.25;42.74;101392.80;1744093;80;21479;-58
2021/10/19 09:35:53;;;;;;;2.95;1.00;;;;;;;10.25;43.37;101392.31;1746417;80;21058;-58
2021/10/19 09:38:20;;;;;;;3.95;1.10;;;;;;;10.29;43.23;101387.26;1749739;80;21047;-58
2021/10/19 09:40:50;;;;;;;4.85;1.47;;;;;;;10.38;43.52;101387.17;1727789;81;21539;-57
2021/10/19 09:43:19;;;;;;;2.27;0.70;;;;;;;10.51;43.18;101381.51;1724115;81;21106;-56
2021/10/19 09:45:50;;;;;;;4.62;1.20;;;;;;;10.67;43.41;101384.47;1722849;81;21078;-57
2021/10/19 09:48:17;;;;;;;2.90;0.90;;;;;;;10.84;41.21;101388.64;1736419;81;21141;-58
2021/10/19 09:50:45;;;;;;;3.83;1.30;;;;;;;10.93;40.93;101380.98;1735107;80;21058;-57
2021/10/19 09:53:14;;;;;;;3.47;1.07;;;;;;;10.93;40.18;101388.89;1729244;80;21090;-57
2021/10/19 09:55:42;;;;;;;5.17;1.50;;;;;;;10.88;40.47;101382.24;1732243;80;21047;-58
2021/10/19 09:58:09;;;;;;;8.93;4.05;;;;;;;10.82;41.27;101379.52;1732522;81;21394;-58
2021/10/19 10:00:37;;;;;;;1.95;0.70;;;;;;;10.80;41.08;101377.47;1732708;80;21116;-58
2021/10/19 10:03:04;;;;;;;3.60;0.75;;;;;;;10.78;40.95;101385.94;1737244;80;21071;-57
2021/10/19 10:05:32;;;;;;;5.87;1.30;;;;;;;10.77;41.12;101392.14;1721739;80;21068;-56
2021/10/19 10:07:59;;;;;;;6.42;2.58;;;;;;;10.75;41.29;101390.92;1736465;81;21031;-58
2021/10/19 10:10:26;;;;;;;5.17;1.45;;;;;;;10.76;41.75;101387.36;1697247;82;21066;-58
2021/10/19 10:13:05;;;;;;;4.83;1.32;;;;;;;10.76;41.23;101383.41;1721212;81;21079;-57
2021/10/19 10:15:34;;;;;;;3.60;0.72;;;;;;;10.76;41.84;101386.03;1735182;80;22271;-58
2021/10/19 10:18:03;;;;;;;3.22;0.95;;;;;;;10.74;40.99;101394.96;1734220;80;21377;-57
2021/10/19 10:20:42;;;;;;;7.92;3.40;;;;;;;10.70;41.44;101385.11;1716445;80;21086;-58
2021/10/19 10:23:24;;;;;;;2.75;1.00;;;;;;;10.71;41.28;101376.76;1731287;81;21646;-58
2021/10/19 10:25:53;;;;;;;5.22;1.20;;;;;;;10.79;41.17;101381.03;1719849;80;21095;-58
2021/10/19 10:28:32;;;;;;;4.53;1.10;;;;;;;10.85;41.09;101374.06;1736592;80;22227;-57
2021/10/19 10:31:07;;;;;;;4.40;1.52;;;;;;;10.94;40.76;101365.56;1729746;80;21290;-57
2021/10/19 10:33:38;;;;;;;2.77;0.93;;;;;;;11.02;40.01;101364.20;1734007;80;21071;-57
2021/10/19 10:36:07;;;;;;;4.95;1.20;;;;;;;11.09;40.23;101365.48;1731514;80;21051;-58
2021/10/19 10:38:36;;;;;;;4.95;1.30;;;;;;;11.17;40.68;101363.66;1733727;80;21867;-57
2021/10/19 10:41:14;;;;;;;4.92;1.12;;;;;;;11.24;39.03;101349.13;1734074;80;21075;-57
2021/10/19 10:43:43;;;;;;;4.12;1.30;;;;;;;11.30;39.31;101357.95;1735922;80;21016;-56
2021/10/19 10:46:15;;;;;;;3.35;1.10;;;;;;;11.32;39.33;101360.83;1718142;82;21004;-57
2021/10/19 10:48:43;;;;;;;4.00;1.20;;;;;;;11.36;39.77;101359.31;1727660;80;21038;-57
2021/10/19 10:51:11;;;;;;;3.47;1.02;;;;;;;11.44;38.85;101349.09;1733843;80;21611;-58
2021/10/19 10:53:41;;;;;;;4.10;1.17;;;;;;;11.50;38.64;101357.91;1720191;81;21044;-58
2021/10/19 10:56:09;;;;;;;4.15;1.20;;;;;;;11.53;39.00;101364.27;1735875;80;21134;-56
2021/10/19 10:58:37;;;;;;;3.85;1.20;;;;;;;11.52;39.17;101363.91;1719930;80;21620;-59
2021/10/19 11:01:28;;;;;;;3.15;1.10;;;;;;;11.53;38.49;101357.22;1734733;80;21109;-57
2021/10/19 11:04:06;;;;;;;3.42;1.12;;;;;;;11.58;38.05;101350.30;1734797;81;22215;-57
2021/10/19 11:06:36;;;;;;;3.30;0.98;;;;;;;11.60;35.77;101348.42;1717874;81;21070;-58
2021/10/19 11:09:11;;;;;;;3.55;1.07;;;;;;;11.63;36.08;101352.16;1719619;82;21725;-58
2021/10/19 11:11:39;;;;;;;4.42;1.00;;;;;;;11.66;36.92;101345.34;1733001;80;21063;-57
2021/10/19 11:14:15;;;;;;;4.60;1.00;;;;;;;11.77;36.85;101347.70;1736037;80;21575;-57
2021/10/19 11:16:47;;;;;;;4.00;1.22;;;;;;;11.82;37.39;101342.49;1719943;81;26550;-57
2021/10/19 11:19:23;;;;;;;3.30;1.05;;;;;;;11.84;35.54;101339.27;1735714;80;21075;-56
2021/10/19 11:21:53;;;;;;;7.72;1.20;;;;;;;11.84;34.68;101332.67;1718091;81;21071;-58
2021/10/19 11:24:21;;;;;;;3.15;0.78;;;;;;;11.84;34.59;101348.49;1737819;80;21090;-58
2021/10/19 11:26:48;;;;;;;4.33;0.93;;;;;;;11.85;35.36;101340.97;1718135;82;21630;-58
2021/10/19 11:29:16;;;;;;;4.67;1.17;;;;;;;11.87;35.22;101340.86;1717876;81;21444;-57
2021/10/19 11:31:42;;;;;;;5.40;1.25;;;;;;;11.84;34.72;101334.48;1719741;81;21528;-57